Main page
METAR-TAF:

METAR-TAF

Airports :

Beauvechain, Belgium

Beauvechain Air Base

latitude: 50-45N, longitude: 004-46E, elevation: 105 m

Current weather observation

The report was made 15 minutes ago, at 07:25 UTC
Wind 8 kt from the West/Southwest
Temperature 13°C
Humidity 77%
Pressure 1016 hPa
Visibility 10 km or more
Few clouds at a height of 2500 ft

METAR: EBBE 230725Z 25008KT 9999 FEW025 13/09 Q1016 BLU BLU

Time: 09:40 (07:40 UTC)

Forecast

The report was made 1 hour and 59 minutes ago, at 05:41 UTC
Forecast valid from 23 at 07 UTC to 23 at 16 UTC
Wind 10 kt from the West/Southwest
Visibility 10 km or more
Few clouds at a height of 5000 ft
Scattered clouds at a height of 20000 ft
Becoming
from 23 at 09 UTC to 23 at 10 UTC
Wind 12 kt from the West with gusts up to 22 kt

TAF: EBBE 230541Z 2307/2316 24010KT 9999 FEW050 SCT200 BECMG 2309/2310 27012G22KT

Weather observations and forecasts of more than 4000 airports (METAR and TAF reports).

The available stations are represented by yellow and red dots on the map.

Hover mouse over dot to see the name of the station.

Then click to see weather observations and forecasts.

To change the map : click on the green buttons with a black cross to zoom in, on the green button with a dash to zoom out, or on the green arrows for adjacent maps.


METAR-TAF: